Terminal Aerodrome Forecast
Issued by NWS

Home | Current Version | Previous Version | Graphics & Text | Print | Product List | Glossary On
Versions: 1 2 3 4 5 6 7 8 9 10 11 12 13 14 15 16 17
604
FTUS42 KMHX 240539
TAFPGV
TAF
KPGV 240539Z 2406/2506 05003KT P6SM SCT250
      TEMPO 2409/2412 1SM BR SCT007
     FM241300 05008KT P6SM BKN250
     FM250300 04005KT P6SM FEW250
      AMD LTD TO CLD VIS AND WIND=

USA.gov is the U.S. government's official web portal to all federal, state and local government web resources and services.